Terminal Aerodrome Forecast
Issued by NWS

Home | Current Version | Previous Version | Text Only | Print | Product List | Glossary On
Versions: 1 2 3 4 5 6 7 8 9 10 11 12 13 14 15
000
FTUS43 KMPX 231700
TAFRWF
TAF
KRWF 231730Z 2318/2418 13020G29KT P6SM VCSH SCT030 OVC060
     FM240000 13020G30KT 4SM -RA BR SCT020 OVC040
     FM240500 12010KT 3SM -RA BR SCT007 OVC015
     FM241400 36009KT 5SM -RA BR OVC015=

USA.gov is the U.S. government's official web portal to all federal, state and local government web resources and services.